sensor_id;sensor_type;location;lat;lon;timestamp;temperature;humidity
15991;DHT22;8100;50.994;4.538;2023-08-12T00:02:12;20.80;99.90
15991;DHT22;8100;50.994;4.538;2023-08-12T00:05:01;20.90;99.90
15991;DHT22;8100;50.994;4.538;2023-08-12T00:07:49;20.80;99.90
15991;DHT22;8100;50.994;4.538;2023-08-12T00:10:36;20.60;99.90
15991;DHT22;8100;50.994;4.538;2023-08-12T00:13:24;20.80;99.90
15991;DHT22;8100;50.994;4.538;2023-08-12T00:16:11;20.50;99.90
15991;DHT22;8100;50.994;4.538;2023-08-12T00:18:58;20.50;99.90
15991;DHT22;8100;50.994;4.538;2023-08-12T00:21:48;20.70;99.90
15991;DHT22;8100;50.994;4.538;2023-08-12T00:24:36;20.70;99.90
15991;DHT22;8100;50.994;4.538;2023-08-12T00:27:23;20.70;99.90
15991;DHT22;8100;50.994;4.538;2023-08-12T00:30:14;20.40;99.90
15991;DHT22;8100;50.994;4.538;2023-08-12T00:33:01;20.50;99.90
15991;DHT22;8100;50.994;4.538;2023-08-12T00:35:49;20.50;99.90
15991;DHT22;8100;50.994;4.538;2023-08-12T00:38:37;20.60;99.90
15991;DHT22;8100;50.994;4.538;2023-08-12T00:41:25;20.60;99.90
15991;DHT22;8100;50.994;4.538;2023-08-12T00:44:12;20.50;99.90
15991;DHT22;8100;50.994;4.538;2023-08-12T00:46:59;20.50;99.90
15991;DHT22;8100;50.994;4.538;2023-08-12T00:49:47;20.50;99.90
15991;DHT22;8100;50.994;4.538;2023-08-12T00:52:35;20.40;99.90
15991;DHT22;8100;50.994;4.538;2023-08-12T00:55:24;20.50;99.90
15991;DHT22;8100;50.994;4.538;2023-08-12T00:58:12;20.60;99.90
15991;DHT22;8100;50.994;4.538;2023-08-12T01:00:59;20.40;99.90
15991;DHT22;8100;50.994;4.538;2023-08-12T01:03:46;20.60;99.90
15991;DHT22;8100;50.994;4.538;2023-08-12T01:06:34;20.30;99.90
15991;DHT22;8100;50.994;4.538;2023-08-12T01:09:21;20.50;99.90
15991;DHT22;8100;50.994;4.538;2023-08-12T01:12:15;20.50;99.90
15991;DHT22;8100;50.994;4.538;2023-08-12T01:15:08;20.50;99.90
15991;DHT22;8100;50.994;4.538;2023-08-12T01:17:57;20.30;99.90
15991;DHT22;8100;50.994;4.538;2023-08-12T01:20:45;20.30;99.90
15991;DHT22;8100;50.994;4.538;2023-08-12T01:23:34;20.30;99.90
15991;DHT22;8100;50.994;4.538;2023-08-12T01:26:22;20.30;99.90
15991;DHT22;8100;50.994;4.538;2023-08-12T01:29:10;20.30;99.90
15991;DHT22;8100;50.994;4.538;2023-08-12T01:32:05;20.40;99.90
15991;DHT22;8100;50.994;4.538;2023-08-12T01:35:00;20.40;99.90
15991;DHT22;8100;50.994;4.538;2023-08-12T01:37:50;20.10;99.90
15991;DHT22;8100;50.994;4.538;2023-08-12T01:40:39;20.20;99.90
15991;DHT22;8100;50.994;4.538;2023-08-12T01:43:28;20.10;99.90
15991;DHT22;8100;50.994;4.538;2023-08-12T01:46:15;19.90;99.90
15991;DHT22;8100;50.994;4.538;2023-08-12T01:49:03;20.20;99.90
15991;DHT22;8100;50.994;4.538;2023-08-12T01:51:50;19.80;99.90
15991;DHT22;8100;50.994;4.538;2023-08-12T01:54:37;20.10;99.90
15991;DHT22;8100;50.994;4.538;2023-08-12T01:57:27;20.00;99.90
15991;DHT22;8100;50.994;4.538;2023-08-12T02:00:15;19.90;99.90
15991;DHT22;8100;50.994;4.538;2023-08-12T02:03:03;19.80;99.90
15991;DHT22;8100;50.994;4.538;2023-08-12T02:05:50;20.10;99.90
15991;DHT22;8100;50.994;4.538;2023-08-12T02:08:37;20.00;99.90
15991;DHT22;8100;50.994;4.538;2023-08-12T02:11:25;19.70;99.90
15991;DHT22;8100;50.994;4.538;2023-08-12T02:14:13;20.00;99.90
15991;DHT22;8100;50.994;4.538;2023-08-12T02:17:00;20.10;99.90
15991;DHT22;8100;50.994;4.538;2023-08-12T02:19:48;19.80;99.90
15991;DHT22;8100;50.994;4.538;2023-08-12T02:22:35;19.90;99.90
15991;DHT22;8100;50.994;4.538;2023-08-12T02:25:22;20.00;99.90
15991;DHT22;8100;50.994;4.538;2023-08-12T02:28:09;20.00;99.90
15991;DHT22;8100;50.994;4.538;2023-08-12T02:30:58;20.10;99.90
15991;DHT22;8100;50.994;4.538;2023-08-12T02:33:45;19.90;99.90
15991;DHT22;8100;50.994;4.538;2023-08-12T02:36:33;19.70;99.90
15991;DHT22;8100;50.994;4.538;2023-08-12T02:39:20;19.90;99.90
15991;DHT22;8100;50.994;4.538;2023-08-12T02:42:07;19.80;99.90
15991;DHT22;8100;50.994;4.538;2023-08-12T02:44:55;20.10;99.90
15991;DHT22;8100;50.994;4.538;2023-08-12T02:47:43;20.00;99.90
15991;DHT22;8100;50.994;4.538;2023-08-12T02:50:31;19.90;99.90
15991;DHT22;8100;50.994;4.538;2023-08-12T02:53:18;20.00;99.90
15991;DHT22;8100;50.994;4.538;2023-08-12T02:56:05;19.60;99.90
15991;DHT22;8100;50.994;4.538;2023-08-12T02:58:52;19.60;99.90
15991;DHT22;8100;50.994;4.538;2023-08-12T03:01:42;19.90;99.90
15991;DHT22;8100;50.994;4.538;2023-08-12T03:04:30;19.90;99.90
15991;DHT22;8100;50.994;4.538;2023-08-12T03:07:18;19.60;99.90
15991;DHT22;8100;50.994;4.538;2023-08-12T03:10:06;19.90;99.90
15991;DHT22;8100;50.994;4.538;2023-08-12T03:12:53;20.00;99.90
15991;DHT22;8100;50.994;4.538;2023-08-12T03:15:41;19.80;99.90
15991;DHT22;8100;50.994;4.538;2023-08-12T03:18:28;20.00;99.90
15991;DHT22;8100;50.994;4.538;2023-08-12T03:21:17;19.60;99.90
15991;DHT22;8100;50.994;4.538;2023-08-12T03:24:05;19.90;99.90
15991;DHT22;8100;50.994;4.538;2023-08-12T03:26:52;19.60;99.90
15991;DHT22;8100;50.994;4.538;2023-08-12T03:29:40;20.00;99.90
15991;DHT22;8100;50.994;4.538;2023-08-12T03:32:27;19.80;99.90
15991;DHT22;8100;50.994;4.538;2023-08-12T03:35:14;20.10;99.90
15991;DHT22;8100;50.994;4.538;2023-08-12T03:38:03;19.60;99.90
15991;DHT22;8100;50.994;4.538;2023-08-12T03:40:51;20.10;99.90
15991;DHT22;8100;50.994;4.538;2023-08-12T03:43:38;19.40;99.90
15991;DHT22;8100;50.994;4.538;2023-08-12T03:46:25;19.40;99.90
15991;DHT22;8100;50.994;4.538;2023-08-12T03:49:12;20.20;99.90
15991;DHT22;8100;50.994;4.538;2023-08-12T03:52:00;19.10;99.90
15991;DHT22;8100;50.994;4.538;2023-08-12T03:54:49;18.90;99.90
15991;DHT22;8100;50.994;4.538;2023-08-12T03:57:36;20.00;99.90
15991;DHT22;8100;50.994;4.538;2023-08-12T04:00:24;18.40;99.90
15991;DHT22;8100;50.994;4.538;2023-08-12T04:03:11;18.60;99.90
15991;DHT22;8100;50.994;4.538;2023-08-12T04:05:58;19.60;99.90
15991;DHT22;8100;50.994;4.538;2023-08-12T04:08:45;19.00;99.90
15991;DHT22;8100;50.994;4.538;2023-08-12T04:11:34;20.20;99.90
15991;DHT22;8100;50.994;4.538;2023-08-12T04:14:21;20.20;99.90
15991;DHT22;8100;50.994;4.538;2023-08-12T04:17:08;21.20;99.90
15991;DHT22;8100;50.994;4.538;2023-08-12T04:19:56;18.50;99.90
15991;DHT22;8100;50.994;4.538;2023-08-12T04:22:43;19.60;99.90
15991;DHT22;8100;50.994;4.538;2023-08-12T04:25:30;20.20;99.90
15991;DHT22;8100;50.994;4.538;2023-08-12T04:28:19;18.40;99.90
15991;DHT22;8100;50.994;4.538;2023-08-12T04:31:07;21.40;99.90
15991;DHT22;8100;50.994;4.538;2023-08-12T04:33:54;19.70;99.90
15991;DHT22;8100;50.994;4.538;2023-08-12T04:36:41;21.50;99.90
15991;DHT22;8100;50.994;4.538;2023-08-12T04:39:29;19.20;99.90
15991;DHT22;8100;50.994;4.538;2023-08-12T04:42:18;18.50;99.90
15991;DHT22;8100;50.994;4.538;2023-08-12T04:45:08;20.20;99.90
15991;DHT22;8100;50.994;4.538;2023-08-12T04:47:56;18.50;99.90
15991;DHT22;8100;50.994;4.538;2023-08-12T04:50:44;19.40;99.90
15991;DHT22;8100;50.994;4.538;2023-08-12T04:53:31;19.70;99.90
15991;DHT22;8100;50.994;4.538;2023-08-12T04:56:18;18.10;99.90
15991;DHT22;8100;50.994;4.538;2023-08-12T04:59:05;19.50;99.90
15991;DHT22;8100;50.994;4.538;2023-08-12T05:01:55;21.10;99.90
15991;DHT22;8100;50.994;4.538;2023-08-12T05:04:42;18.20;99.90
15991;DHT22;8100;50.994;4.538;2023-08-12T05:07:30;18.50;99.90
15991;DHT22;8100;50.994;4.538;2023-08-12T05:10:19;21.50;99.90
15991;DHT22;8100;50.994;4.538;2023-08-12T05:13:07;19.70;99.90
15991;DHT22;8100;50.994;4.538;2023-08-12T05:15:54;20.60;99.90
15991;DHT22;8100;50.994;4.538;2023-08-12T05:18:42;20.00;99.90
15991;DHT22;8100;50.994;4.538;2023-08-12T05:21:30;21.40;99.90
15991;DHT22;8100;50.994;4.538;2023-08-12T05:24:17;18.40;99.90
15991;DHT22;8100;50.994;4.538;2023-08-12T05:27:04;19.50;99.90
15991;DHT22;8100;50.994;4.538;2023-08-12T05:29:52;18.10;99.90
15991;DHT22;8100;50.994;4.538;2023-08-12T05:32:39;19.20;99.90
15991;DHT22;8100;50.994;4.538;2023-08-12T05:35:28;21.50;99.90
15991;DHT22;8100;50.994;4.538;2023-08-12T05:38:15;21.10;99.90
15991;DHT22;8100;50.994;4.538;2023-08-12T05:41:03;20.90;99.90
15991;DHT22;8100;50.994;4.538;2023-08-12T05:43:53;19.90;99.90
15991;DHT22;8100;50.994;4.538;2023-08-12T05:46:40;20.70;99.90
15991;DHT22;8100;50.994;4.538;2023-08-12T05:49:27;19.70;99.90
15991;DHT22;8100;50.994;4.538;2023-08-12T05:52:16;18.30;99.90
15991;DHT22;8100;50.994;4.538;2023-08-12T05:55:04;18.50;99.90
15991;DHT22;8100;50.994;4.538;2023-08-12T05:57:52;18.60;99.90
15991;DHT22;8100;50.994;4.538;2023-08-12T06:00:39;20.50;99.90
15991;DHT22;8100;50.994;4.538;2023-08-12T06:03:26;21.70;99.90
15991;DHT22;8100;50.994;4.538;2023-08-12T06:06:14;19.60;99.90
15991;DHT22;8100;50.994;4.538;2023-08-12T06:09:03;21.20;99.90
15991;DHT22;8100;50.994;4.538;2023-08-12T06:11:50;18.20;99.90
15991;DHT22;8100;50.994;4.538;2023-08-12T06:14:37;18.50;99.90
15991;DHT22;8100;50.994;4.538;2023-08-12T06:17:25;21.70;99.90
15991;DHT22;8100;50.994;4.538;2023-08-12T06:20:12;18.40;99.90
15991;DHT22;8100;50.994;4.538;2023-08-12T06:23:00;19.90;99.90
15991;DHT22;8100;50.994;4.538;2023-08-12T06:25:49;21.30;99.90
15991;DHT22;8100;50.994;4.538;2023-08-12T06:28:36;19.60;99.90
15991;DHT22;8100;50.994;4.538;2023-08-12T06:31:23;21.40;99.90
15991;DHT22;8100;50.994;4.538;2023-08-12T06:34:11;20.00;99.90
15991;DHT22;8100;50.994;4.538;2023-08-12T06:36:58;21.40;99.90
15991;DHT22;8100;50.994;4.538;2023-08-12T06:39:46;20.40;99.90
15991;DHT22;8100;50.994;4.538;2023-08-12T06:42:34;20.80;99.90
15991;DHT22;8100;50.994;4.538;2023-08-12T06:45:22;18.70;99.90
15991;DHT22;8100;50.994;4.538;2023-08-12T06:48:09;19.40;99.90
15991;DHT22;8100;50.994;4.538;2023-08-12T06:50:56;20.30;99.90
15991;DHT22;8100;50.994;4.538;2023-08-12T06:53:44;18.20;99.90
15991;DHT22;8100;50.994;4.538;2023-08-12T06:56:31;21.90;99.90
15991;DHT22;8100;50.994;4.538;2023-08-12T06:59:20;19.20;99.90
15991;DHT22;8100;50.994;4.538;2023-08-12T07:02:07;18.20;99.90
15991;DHT22;8100;50.994;4.538;2023-08-12T07:04:54;22.10;99.90
15991;DHT22;8100;50.994;4.538;2023-08-12T07:07:42;18.20;99.90
15991;DHT22;8100;50.994;4.538;2023-08-12T07:10:29;19.60;99.90
15991;DHT22;8100;50.994;4.538;2023-08-12T07:13:16;21.30;99.90
15991;DHT22;8100;50.994;4.538;2023-08-12T07:16:05;20.60;99.90
15991;DHT22;8100;50.994;4.538;2023-08-12T07:18:53;17.90;99.90
15991;DHT22;8100;50.994;4.538;2023-08-12T07:21:43;21.00;99.90
15991;DHT22;8100;50.994;4.538;2023-08-12T07:24:30;21.10;99.90
15991;DHT22;8100;50.994;4.538;2023-08-12T07:27:17;21.20;99.90
15991;DHT22;8100;50.994;4.538;2023-08-12T07:30:06;21.80;99.90
15991;DHT22;8100;50.994;4.538;2023-08-12T07:32:55;22.10;99.90
15991;DHT22;8100;50.994;4.538;2023-08-12T07:35:42;20.40;99.90
15991;DHT22;8100;50.994;4.538;2023-08-12T07:38:29;19.40;99.90
15991;DHT22;8100;50.994;4.538;2023-08-12T07:41:17;19.10;99.90
15991;DHT22;8100;50.994;4.538;2023-08-12T07:44:05;18.20;99.90
15991;DHT22;8100;50.994;4.538;2023-08-12T07:46:52;18.00;99.90
15991;DHT22;8100;50.994;4.538;2023-08-12T07:49:41;17.90;99.90
15991;DHT22;8100;50.994;4.538;2023-08-12T07:52:29;20.70;99.90
15991;DHT22;8100;50.994;4.538;2023-08-12T07:55:16;20.90;99.90
15991;DHT22;8100;50.994;4.538;2023-08-12T07:58:04;20.80;99.90
15991;DHT22;8100;50.994;4.538;2023-08-12T08:00:52;18.10;99.90
15991;DHT22;8100;50.994;4.538;2023-08-12T08:03:40;19.00;99.90
15991;DHT22;8100;50.994;4.538;2023-08-12T08:06:29;20.80;99.90
15991;DHT22;8100;50.994;4.538;2023-08-12T08:09:16;19.40;99.90
15991;DHT22;8100;50.994;4.538;2023-08-12T08:12:05;20.50;99.90
15991;DHT22;8100;50.994;4.538;2023-08-12T08:14:53;19.60;99.90
15991;DHT22;8100;50.994;4.538;2023-08-12T08:17:40;20.10;99.90
15991;DHT22;8100;50.994;4.538;2023-08-12T08:20:27;19.20;99.90
15991;DHT22;8100;50.994;4.538;2023-08-12T08:23:16;19.30;99.90
15991;DHT22;8100;50.994;4.538;2023-08-12T08:26:03;20.30;99.90
15991;DHT22;8100;50.994;4.538;2023-08-12T08:28:51;19.80;99.90
15991;DHT22;8100;50.994;4.538;2023-08-12T08:31:38;18.40;99.90
15991;DHT22;8100;50.994;4.538;2023-08-12T08:34:25;19.70;99.90
15991;DHT22;8100;50.994;4.538;2023-08-12T08:37:13;19.00;99.90
15991;DHT22;8100;50.994;4.538;2023-08-12T08:40:01;19.40;99.90
15991;DHT22;8100;50.994;4.538;2023-08-12T08:42:51;18.60;99.90
15991;DHT22;8100;50.994;4.538;2023-08-12T08:45:39;18.80;99.90
15991;DHT22;8100;50.994;4.538;2023-08-12T08:48:29;19.90;99.90
15991;DHT22;8100;50.994;4.538;2023-08-12T08:51:18;19.00;99.90
15991;DHT22;8100;50.994;4.538;2023-08-12T08:54:06;19.70;99.90
15991;DHT22;8100;50.994;4.538;2023-08-12T08:56:56;19.20;99.90
15991;DHT22;8100;50.994;4.538;2023-08-12T08:59:43;19.70;99.90
15991;DHT22;8100;50.994;4.538;2023-08-12T09:02:31;19.20;99.90
15991;DHT22;8100;50.994;4.538;2023-08-12T09:05:19;19.40;99.90
15991;DHT22;8100;50.994;4.538;2023-08-12T09:08:08;19.50;99.90
15991;DHT22;8100;50.994;4.538;2023-08-12T09:10:57;19.60;99.90
15991;DHT22;8100;50.994;4.538;2023-08-12T09:13:47;19.70;99.90
15991;DHT22;8100;50.994;4.538;2023-08-12T09:16:35;19.90;99.90
15991;DHT22;8100;50.994;4.538;2023-08-12T09:19:22;19.80;99.90
15991;DHT22;8100;50.994;4.538;2023-08-12T09:22:10;20.00;99.90
15991;DHT22;8100;50.994;4.538;2023-08-12T09:24:57;20.20;99.90
15991;DHT22;8100;50.994;4.538;2023-08-12T09:27:44;20.20;99.90
15991;DHT22;8100;50.994;4.538;2023-08-12T09:30:33;20.40;99.90
15991;DHT22;8100;50.994;4.538;2023-08-12T09:33:24;20.40;99.90
15991;DHT22;8100;50.994;4.538;2023-08-12T09:36:12;20.50;99.90
15991;DHT22;8100;50.994;4.538;2023-08-12T09:38:59;20.60;99.90
15991;DHT22;8100;50.994;4.538;2023-08-12T09:41:47;21.00;99.90
15991;DHT22;8100;50.994;4.538;2023-08-12T09:44:34;21.50;99.90
15991;DHT22;8100;50.994;4.538;2023-08-12T09:47:25;21.50;99.90
15991;DHT22;8100;50.994;4.538;2023-08-12T09:50:12;21.10;99.90
15991;DHT22;8100;50.994;4.538;2023-08-12T09:53:01;20.80;99.90
15991;DHT22;8100;50.994;4.538;2023-08-12T09:55:52;20.90;99.90
15991;DHT22;8100;50.994;4.538;2023-08-12T09:58:40;21.00;99.90
15991;DHT22;8100;50.994;4.538;2023-08-12T10:01:29;20.70;99.90
15991;DHT22;8100;50.994;4.538;2023-08-12T10:04:22;20.70;99.90
15991;DHT22;8100;50.994;4.538;2023-08-12T10:07:11;20.70;99.90
15991;DHT22;8100;50.994;4.538;2023-08-12T10:09:59;20.70;99.90
15991;DHT22;8100;50.994;4.538;2023-08-12T10:12:46;20.70;99.90
15991;DHT22;8100;50.994;4.538;2023-08-12T10:15:34;20.60;99.90
15991;DHT22;8100;50.994;4.538;2023-08-12T10:18:22;20.70;99.90
15991;DHT22;8100;50.994;4.538;2023-08-12T10:21:12;20.70;99.90
15991;DHT22;8100;50.994;4.538;2023-08-12T10:24:02;20.70;99.90
15991;DHT22;8100;50.994;4.538;2023-08-12T10:26:51;21.10;91.40
15991;DHT22;8100;50.994;4.538;2023-08-12T10:29:42;21.30;72.70
15991;DHT22;8100;50.994;4.538;2023-08-12T10:32:30;21.50;61.10
15991;DHT22;8100;50.994;4.538;2023-08-12T10:35:18;21.40;1.00
15991;DHT22;8100;50.994;4.538;2023-08-12T10:38:07;21.40;1.00
15991;DHT22;8100;50.994;4.538;2023-08-12T10:41:14;21.50;1.00
15991;DHT22;8100;50.994;4.538;2023-08-12T10:44:05;21.40;1.00
15991;DHT22;8100;50.994;4.538;2023-08-12T10:46:54;21.60;1.00
15991;DHT22;8100;50.994;4.538;2023-08-12T10:49:43;21.80;1.00
15991;DHT22;8100;50.994;4.538;2023-08-12T10:52:32;21.90;1.00
15991;DHT22;8100;50.994;4.538;2023-08-12T10:55:23;22.00;1.00
15991;DHT22;8100;50.994;4.538;2023-08-12T10:58:24;22.40;1.00
15991;DHT22;8100;50.994;4.538;2023-08-12T11:01:16;22.20;1.00
15991;DHT22;8100;50.994;4.538;2023-08-12T11:04:16;21.90;1.00
15991;DHT22;8100;50.994;4.538;2023-08-12T11:07:14;21.80;1.00
15991;DHT22;8100;50.994;4.538;2023-08-12T11:10:10;21.80;1.00
15991;DHT22;8100;50.994;4.538;2023-08-12T11:13:00;21.60;1.00
15991;DHT22;8100;50.994;4.538;2023-08-12T11:15:47;21.80;1.00
15991;DHT22;8100;50.994;4.538;2023-08-12T11:18:36;21.90;1.00
15991;DHT22;8100;50.994;4.538;2023-08-12T11:21:24;22.20;1.00
15991;DHT22;8100;50.994;4.538;2023-08-12T11:24:12;22.30;1.00
15991;DHT22;8100;50.994;4.538;2023-08-12T11:27:00;22.70;1.00
15991;DHT22;8100;50.994;4.538;2023-08-12T11:29:50;23.00;1.00
15991;DHT22;8100;50.994;4.538;2023-08-12T11:32:39;23.40;1.00
15991;DHT22;8100;50.994;4.538;2023-08-12T11:35:27;23.30;1.00
15991;DHT22;8100;50.994;4.538;2023-08-12T11:38:15;23.20;1.00
15991;DHT22;8100;50.994;4.538;2023-08-12T11:41:02;23.10;1.00
15991;DHT22;8100;50.994;4.538;2023-08-12T11:43:49;23.20;1.00
15991;DHT22;8100;50.994;4.538;2023-08-12T11:46:38;22.90;1.00
15991;DHT22;8100;50.994;4.538;2023-08-12T11:49:25;22.60;1.00
15991;DHT22;8100;50.994;4.538;2023-08-12T11:52:13;22.80;1.00
15991;DHT22;8100;50.994;4.538;2023-08-12T11:55:01;22.80;1.00
15991;DHT22;8100;50.994;4.538;2023-08-12T11:57:50;22.90;1.00
15991;DHT22;8100;50.994;4.538;2023-08-12T12:00:38;23.10;1.00
15991;DHT22;8100;50.994;4.538;2023-08-12T12:03:30;22.90;1.00
15991;DHT22;8100;50.994;4.538;2023-08-12T12:06:17;22.60;1.00
15991;DHT22;8100;50.994;4.538;2023-08-12T12:09:06;22.80;1.00
15991;DHT22;8100;50.994;4.538;2023-08-12T12:11:55;23.00;1.00
15991;DHT22;8100;50.994;4.538;2023-08-12T12:14:43;23.40;1.00
15991;DHT22;8100;50.994;4.538;2023-08-12T12:17:30;23.30;1.00
15991;DHT22;8100;50.994;4.538;2023-08-12T12:20:20;23.20;1.00
15991;DHT22;8100;50.994;4.538;2023-08-12T12:23:07;23.30;1.00
15991;DHT22;8100;50.994;4.538;2023-08-12T12:25:57;23.30;1.00
15991;DHT22;8100;50.994;4.538;2023-08-12T12:28:45;23.30;1.00
15991;DHT22;8100;50.994;4.538;2023-08-12T12:31:33;23.10;1.00
15991;DHT22;8100;50.994;4.538;2023-08-12T12:34:20;23.20;1.00
15991;DHT22;8100;50.994;4.538;2023-08-12T12:37:10;23.30;1.00
15991;DHT22;8100;50.994;4.538;2023-08-12T12:39:57;23.40;1.00
15991;DHT22;8100;50.994;4.538;2023-08-12T12:42:45;23.30;1.00
15991;DHT22;8100;50.994;4.538;2023-08-12T12:45:32;23.30;1.00
15991;DHT22;8100;50.994;4.538;2023-08-12T12:48:19;23.40;1.00
15991;DHT22;8100;50.994;4.538;2023-08-12T12:51:06;23.50;1.00
15991;DHT22;8100;50.994;4.538;2023-08-12T12:53:55;23.50;1.00
15991;DHT22;8100;50.994;4.538;2023-08-12T12:56:43;23.30;1.00
15991;DHT22;8100;50.994;4.538;2023-08-12T12:59:30;23.20;1.00
15991;DHT22;8100;50.994;4.538;2023-08-12T13:02:17;23.40;1.00
15991;DHT22;8100;50.994;4.538;2023-08-12T13:05:05;23.80;1.00
15991;DHT22;8100;50.994;4.538;2023-08-12T13:07:52;23.80;99.90
15991;DHT22;8100;50.994;4.538;2023-08-12T13:10:41;24.00;1.00
15991;DHT22;8100;50.994;4.538;2023-08-12T13:13:28;23.70;99.90
15991;DHT22;8100;50.994;4.538;2023-08-12T13:16:15;23.40;99.90
15991;DHT22;8100;50.994;4.538;2023-08-12T13:19:03;23.50;99.90
15991;DHT22;8100;50.994;4.538;2023-08-12T13:21:50;23.90;99.90
15991;DHT22;8100;50.994;4.538;2023-08-12T13:24:37;24.30;99.90
15991;DHT22;8100;50.994;4.538;2023-08-12T13:27:26;24.50;1.00
15991;DHT22;8100;50.994;4.538;2023-08-12T13:30:13;24.40;90.90
15991;DHT22;8100;50.994;4.538;2023-08-12T13:33:01;24.30;38.10
15991;DHT22;8100;50.994;4.538;2023-08-12T13:35:48;24.30;1.00
15991;DHT22;8100;50.994;4.538;2023-08-12T13:38:36;23.90;1.00
15991;DHT22;8100;50.994;4.538;2023-08-12T13:41:23;24.20;1.00
15991;DHT22;8100;50.994;4.538;2023-08-12T13:44:12;24.50;1.00
15991;DHT22;8100;50.994;4.538;2023-08-12T13:46:59;24.50;1.00
15991;DHT22;8100;50.994;4.538;2023-08-12T13:49:46;24.90;1.00
15991;DHT22;8100;50.994;4.538;2023-08-12T13:52:34;24.60;1.00
15991;DHT22;8100;50.994;4.538;2023-08-12T13:55:21;24.50;1.00
15991;DHT22;8100;50.994;4.538;2023-08-12T13:58:09;24.50;1.00
15991;DHT22;8100;50.994;4.538;2023-08-12T14:00:57;25.00;1.00
15991;DHT22;8100;50.994;4.538;2023-08-12T14:03:45;26.00;1.00
15991;DHT22;8100;50.994;4.538;2023-08-12T14:06:32;24.80;1.00
15991;DHT22;8100;50.994;4.538;2023-08-12T14:09:19;24.20;1.00
15991;DHT22;8100;50.994;4.538;2023-08-12T14:12:07;25.00;1.00
15991;DHT22;8100;50.994;4.538;2023-08-12T14:14:54;26.90;1.00
15991;DHT22;8100;50.994;4.538;2023-08-12T14:17:43;27.00;1.00
15991;DHT22;8100;50.994;4.538;2023-08-12T14:20:30;27.60;1.00
15991;DHT22;8100;50.994;4.538;2023-08-12T14:23:18;27.30;99.90
15991;DHT22;8100;50.994;4.538;2023-08-12T14:26:05;27.10;99.90
15991;DHT22;8100;50.994;4.538;2023-08-12T14:28:53;25.90;99.90
15991;DHT22;8100;50.994;4.538;2023-08-12T14:31:40;26.10;99.90
15991;DHT22;8100;50.994;4.538;2023-08-12T14:34:29;25.50;99.90
15991;DHT22;8100;50.994;4.538;2023-08-12T14:37:16;25.80;99.90
15991;DHT22;8100;50.994;4.538;2023-08-12T14:40:04;27.60;99.90
15991;DHT22;8100;50.994;4.538;2023-08-12T14:42:51;28.30;99.90
15991;DHT22;8100;50.994;4.538;2023-08-12T14:45:39;29.40;99.90
15991;DHT22;8100;50.994;4.538;2023-08-12T14:48:26;29.90;24.90
15991;DHT22;8100;50.994;4.538;2023-08-12T14:51:15;29.40;1.00
15991;DHT22;8100;50.994;4.538;2023-08-12T14:54:02;29.30;1.00
15991;DHT22;8100;50.994;4.538;2023-08-12T14:56:50;28.70;99.90
15991;DHT22;8100;50.994;4.538;2023-08-12T14:59:37;28.80;99.90
15991;DHT22;8100;50.994;4.538;2023-08-12T15:02:24;28.20;99.90
15991;DHT22;8100;50.994;4.538;2023-08-12T15:05:12;26.10;99.90
15991;DHT22;8100;50.994;4.538;2023-08-12T15:08:00;25.50;99.90
15991;DHT22;8100;50.994;4.538;2023-08-12T15:10:49;26.50;99.90
15991;DHT22;8100;50.994;4.538;2023-08-12T15:13:37;28.60;1.00
15991;DHT22;8100;50.994;4.538;2023-08-12T15:16:24;29.90;1.00
15991;DHT22;8100;50.994;4.538;2023-08-12T15:19:11;30.50;1.00
15991;DHT22;8100;50.994;4.538;2023-08-12T15:21:58;29.20;99.90
15991;DHT22;8100;50.994;4.538;2023-08-12T15:24:47;29.10;99.90
15991;DHT22;8100;50.994;4.538;2023-08-12T15:27:34;29.40;99.90
15991;DHT22;8100;50.994;4.538;2023-08-12T15:30:22;29.60;99.90
15991;DHT22;8100;50.994;4.538;2023-08-12T15:33:10;29.40;99.90
15991;DHT22;8100;50.994;4.538;2023-08-12T15:35:57;28.00;99.90
15991;DHT22;8100;50.994;4.538;2023-08-12T15:38:46;28.50;99.90
15991;DHT22;8100;50.994;4.538;2023-08-12T15:41:40;29.80;99.90
15991;DHT22;8100;50.994;4.538;2023-08-12T15:44:28;29.90;99.90
15991;DHT22;8100;50.994;4.538;2023-08-12T15:47:16;29.70;72.50
15991;DHT22;8100;50.994;4.538;2023-08-12T15:50:03;29.20;99.90
15991;DHT22;8100;50.994;4.538;2023-08-12T15:52:51;29.80;99.90
15991;DHT22;8100;50.994;4.538;2023-08-12T15:55:38;30.30;99.90
15991;DHT22;8100;50.994;4.538;2023-08-12T15:58:27;31.20;99.90
15991;DHT22;8100;50.994;4.538;2023-08-12T16:01:14;30.50;4.50
15991;DHT22;8100;50.994;4.538;2023-08-12T16:04:02;27.00;99.90
15991;DHT22;8100;50.994;4.538;2023-08-12T16:06:51;25.50;1.00
15991;DHT22;8100;50.994;4.538;2023-08-12T16:09:38;26.20;1.00
15991;DHT22;8100;50.994;4.538;2023-08-12T16:12:25;26.20;1.00
15991;DHT22;8100;50.994;4.538;2023-08-12T16:15:14;25.60;1.00
15991;DHT22;8100;50.994;4.538;2023-08-12T16:18:01;27.10;1.00
15991;DHT22;8100;50.994;4.538;2023-08-12T16:20:48;28.80;61.50
15991;DHT22;8100;50.994;4.538;2023-08-12T16:23:36;27.80;78.70
15991;DHT22;8100;50.994;4.538;2023-08-12T16:26:23;25.90;1.00
15991;DHT22;8100;50.994;4.538;2023-08-12T16:29:10;25.60;1.00
15991;DHT22;8100;50.994;4.538;2023-08-12T16:31:59;27.10;43.20
15991;DHT22;8100;50.994;4.538;2023-08-12T16:34:46;27.50;1.00
15991;DHT22;8100;50.994;4.538;2023-08-12T16:37:34;27.60;1.00
15991;DHT22;8100;50.994;4.538;2023-08-12T16:40:21;26.50;1.00
15991;DHT22;8100;50.994;4.538;2023-08-12T16:43:09;25.90;1.00
15991;DHT22;8100;50.994;4.538;2023-08-12T16:45:57;25.80;99.90
15991;DHT22;8100;50.994;4.538;2023-08-12T16:48:45;25.80;1.00
15991;DHT22;8100;50.994;4.538;2023-08-12T16:51:33;25.40;1.00
15991;DHT22;8100;50.994;4.538;2023-08-12T16:54:20;24.80;99.90
15991;DHT22;8100;50.994;4.538;2023-08-12T16:57:08;24.30;1.00
15991;DHT22;8100;50.994;4.538;2023-08-12T16:59:55;24.20;1.00
15991;DHT22;8100;50.994;4.538;2023-08-12T17:02:42;24.20;1.00
15991;DHT22;8100;50.994;4.538;2023-08-12T17:05:31;24.10;1.00
15991;DHT22;8100;50.994;4.538;2023-08-12T17:08:19;24.30;1.00
15991;DHT22;8100;50.994;4.538;2023-08-12T17:11:06;24.50;1.00
15991;DHT22;8100;50.994;4.538;2023-08-12T17:13:53;24.40;1.00
15991;DHT22;8100;50.994;4.538;2023-08-12T17:16:40;24.40;1.00
15991;DHT22;8100;50.994;4.538;2023-08-12T17:19:28;24.10;1.00
15991;DHT22;8100;50.994;4.538;2023-08-12T17:22:16;23.90;1.00
15991;DHT22;8100;50.994;4.538;2023-08-12T17:25:04;23.90;1.00
15991;DHT22;8100;50.994;4.538;2023-08-12T17:27:52;23.80;1.00
15991;DHT22;8100;50.994;4.538;2023-08-12T17:30:39;23.50;1.00
15991;DHT22;8100;50.994;4.538;2023-08-12T17:33:26;23.40;1.00
15991;DHT22;8100;50.994;4.538;2023-08-12T17:36:14;23.30;1.00
15991;DHT22;8100;50.994;4.538;2023-08-12T17:39:03;23.10;1.00
15991;DHT22;8100;50.994;4.538;2023-08-12T17:41:51;23.00;1.00
15991;DHT22;8100;50.994;4.538;2023-08-12T17:44:38;23.00;1.00
15991;DHT22;8100;50.994;4.538;2023-08-12T17:47:25;23.00;1.00
15991;DHT22;8100;50.994;4.538;2023-08-12T17:50:12;23.00;1.00
15991;DHT22;8100;50.994;4.538;2023-08-12T17:53:00;22.90;1.00
15991;DHT22;8100;50.994;4.538;2023-08-12T17:55:48;23.00;1.00
15991;DHT22;8100;50.994;4.538;2023-08-12T17:58:36;22.90;1.00
15991;DHT22;8100;50.994;4.538;2023-08-12T18:01:23;22.80;1.00
15991;DHT22;8100;50.994;4.538;2023-08-12T18:04:11;22.70;1.00